Time,TemperatureF,DewpointF,PressureIn,WindDirection,WindDirectionDegrees,WindSpeedMPH,WindSpeedGustMPH,Humidity,HourlyPrecipIn,Conditions,Clouds,dailyrainin,SoftwareType,DateUTC
2013-02-16 00:00:00,33.0,31.7,30.05,ESE,103,0.0,0.0,95,0.00,,,0.14,Wunderground v.1.13,2013-02-16 05:00:00,
2013-02-16 00:10:00,33.0,32.0,30.05,ESE,103,0.0,0.0,96,0.00,,,0.00,Wunderground v.1.13,2013-02-16 05:10:00,
2013-02-16 00:20:00,33.0,32.0,30.05,ESE,103,0.0,0.0,96,0.00,,,0.00,Wunderground v.1.13,2013-02-16 05:20:00,
2013-02-16 00:23:00,33.0,32.0,30.05,North,-999,0.0,0.0,96,0.00,,,-99.99,WeatherLink 6.0.2,2013-02-16 05:23:00,
2013-02-16 00:30:00,32.9,31.9,30.05,East,89,0.0,2.0,96,0.00,,,0.00,Wunderground v.1.13,2013-02-16 05:30:00,
2013-02-16 00:40:00,32.9,31.1,30.05,ESE,107,1.0,1.0,93,0.00,,,0.00,Wunderground v.1.13,2013-02-16 05:40:00,
2013-02-16 00:50:00,32.8,30.2,30.05,ESE,111,1.0,1.0,90,0.00,,,0.00,Wunderground v.1.13,2013-02-16 05:50:00,
2013-02-16 01:00:00,32.6,30.3,30.05,ESE,105,0.0,0.0,91,0.00,,,0.00,Wunderground v.1.13,2013-02-16 06:00:00,
2013-02-16 01:10:00,32.4,30.1,30.04,ESE,116,0.0,0.0,91,0.00,,,0.00,Wunderground v.1.13,2013-02-16 06:10:00,
2013-02-16 01:20:00,32.3,30.2,30.04,ESE,116,0.0,0.0,92,0.00,,,0.00,Wunderground v.1.13,2013-02-16 06:20:00,
2013-02-16 01:30:00,32.1,30.3,30.04,ESE,116,0.0,0.0,93,0.00,,,0.00,Wunderground v.1.13,2013-02-16 06:30:00,
2013-02-16 01:40:00,32.2,29.9,30.03,ESE,116,0.0,0.0,91,0.00,,,0.00,Wunderground v.1.13,2013-02-16 06:40:00,
2013-02-16 01:50:00,32.3,29.7,30.03,ESE,116,0.0,0.0,90,0.00,,,0.00,Wunderground v.1.13,2013-02-16 06:50:00,
2013-02-16 02:00:00,32.3,30.0,30.03,ESE,116,0.0,0.0,91,0.00,,,0.00,Wunderground v.1.13,2013-02-16 07:00:00,
2013-02-16 02:10:00,32.2,30.1,30.02,ESE,116,0.0,0.0,92,0.00,,,0.00,Wunderground v.1.13,2013-02-16 07:10:00,
2013-02-16 02:20:00,32.1,30.3,30.02,ESE,116,0.0,0.0,93,0.00,,,0.00,Wunderground v.1.13,2013-02-16 07:20:00,
2013-02-16 02:30:00,32.1,30.3,30.02,ESE,116,0.0,0.0,93,0.00,,,0.00,Wunderground v.1.13,2013-02-16 07:30:00,
2013-02-16 02:40:00,32.1,30.3,30.02,ESE,116,0.0,0.0,93,0.00,,,0.00,Wunderground v.1.13,2013-02-16 07:40:00,
2013-02-16 02:50:00,32.0,29.9,30.02,ESE,116,0.0,0.0,92,0.00,,,0.00,Wunderground v.1.13,2013-02-16 07:50:00,
2013-02-16 03:00:00,32.0,30.2,30.01,ESE,116,0.0,0.0,93,0.00,,,0.00,Wunderground v.1.13,2013-02-16 08:00:00,
2013-02-16 03:10:00,32.0,30.5,30.01,ESE,116,0.0,0.0,94,0.00,,,0.00,Wunderground v.1.13,2013-02-16 08:10:00,
2013-02-16 03:20:00,31.9,30.4,30.01,ESE,116,0.0,0.0,94,0.00,,,0.00,Wunderground v.1.13,2013-02-16 08:20:00,
2013-02-16 03:30:00,31.9,30.4,30.00,ESE,116,0.0,0.0,94,0.00,,,0.00,Wunderground v.1.13,2013-02-16 08:30:00,
2013-02-16 03:40:00,31.9,30.4,30.00,ESE,116,0.0,0.0,94,0.00,,,0.00,Wunderground v.1.13,2013-02-16 08:40:00,
2013-02-16 03:50:00,31.9,30.4,30.00,ESE,116,0.0,0.0,94,0.00,,,0.00,Wunderground v.1.13,2013-02-16 08:50:00,
2013-02-16 04:00:00,31.9,30.6,30.00,SE,126,0.0,4.0,95,0.00,,,0.00,Wunderground v.1.13,2013-02-16 09:00:00,
2013-02-16 04:10:00,30.0,28.2,30.01,East,93,4.0,9.0,93,0.00,,,0.00,Wunderground v.1.13,2013-02-16 09:10:00,
2013-02-16 04:20:00,29.0,27.2,30.02,ESE,109,5.0,5.0,93,0.00,,,0.00,Wunderground v.1.13,2013-02-16 09:20:00,
2013-02-16 04:30:00,28.8,26.8,30.02,ESE,121,4.0,4.0,92,0.00,,,0.00,Wunderground v.1.13,2013-02-16 09:30:00,
2013-02-16 04:40:00,28.6,26.6,30.02,ESE,122,4.0,4.0,92,0.00,,,0.00,Wunderground v.1.13,2013-02-16 09:40:00,
2013-02-16 04:50:00,28.4,26.1,30.02,ESE,111,2.0,2.0,91,0.00,,,0.00,Wunderground v.1.13,2013-02-16 09:50:00,
2013-02-16 05:00:00,28.1,26.1,30.02,ESE,115,1.0,2.0,92,0.00,,,0.00,Wunderground v.1.13,2013-02-16 10:00:00,
2013-02-16 05:10:00,28.0,25.7,30.02,East,92,1.0,1.0,91,0.00,,,0.00,Wunderground v.1.13,2013-02-16 10:10:00,
2013-02-16 05:20:00,27.8,25.5,30.03,East,92,0.0,0.0,91,0.00,,,0.00,Wunderground v.1.13,2013-02-16 10:20:00,
2013-02-16 05:30:00,27.5,25.2,30.02,East,92,0.0,0.0,91,0.00,,,0.00,Wunderground v.1.13,2013-02-16 10:30:00,
2013-02-16 05:40:00,27.4,25.1,30.03,East,92,0.0,0.0,91,0.00,,,0.00,Wunderground v.1.13,2013-02-16 10:40:00,
2013-02-16 05:50:00,27.2,24.7,30.03,East,92,0.0,0.0,90,0.00,,,0.00,Wunderground v.1.13,2013-02-16 10:50:00,
2013-02-16 06:00:00,26.8,24.5,30.03,East,92,0.0,0.0,91,0.00,,,0.00,Wunderground v.1.13,2013-02-16 11:00:00,
2013-02-16 06:10:00,26.8,24.8,30.03,East,92,0.0,0.0,92,0.00,,,0.00,Wunderground v.1.13,2013-02-16 11:10:00,
2013-02-16 06:20:00,26.9,24.6,30.03,East,92,0.0,0.0,91,0.00,,,0.00,Wunderground v.1.13,2013-02-16 11:20:00,
2013-02-16 06:30:00,27.1,24.6,30.03,East,92,0.0,0.0,90,0.00,,,0.00,Wunderground v.1.13,2013-02-16 11:30:00,
2013-02-16 06:40:00,27.2,24.9,30.03,East,92,0.0,0.0,91,0.00,,,0.00,Wunderground v.1.13,2013-02-16 11:40:00,
2013-02-16 06:50:00,27.1,24.8,30.03,East,92,0.0,0.0,91,0.00,,,0.00,Wunderground v.1.13,2013-02-16 11:50:00,
2013-02-16 07:00:00,27.1,24.8,30.03,East,92,0.0,0.0,91,0.00,,,0.00,Wunderground v.1.13,2013-02-16 12:00:00,
2013-02-16 07:10:00,27.2,24.7,30.03,East,93,0.0,0.0,90,0.00,,,0.00,Wunderground v.1.13,2013-02-16 12:10:00,
2013-02-16 07:20:00,27.2,24.4,30.04,ESE,109,0.0,2.0,89,0.00,,,0.00,Wunderground v.1.13,2013-02-16 12:20:00,
2013-02-16 07:30:00,27.2,24.4,30.04,ESE,109,0.0,0.0,89,0.00,,,0.00,Wunderground v.1.13,2013-02-16 12:30:00,
2013-02-16 07:40:00,27.2,24.4,30.03,ESE,109,0.0,0.0,89,0.00,,,0.00,Wunderground v.1.13,2013-02-16 12:40:00,
2013-02-16 07:50:00,27.2,24.1,30.03,ESE,109,0.0,0.0,88,0.00,,,0.00,Wunderground v.1.13,2013-02-16 12:50:00,
2013-02-16 08:00:00,27.3,24.5,30.03,ESE,109,0.0,0.0,89,0.00,,,0.00,Wunderground v.1.13,2013-02-16 13:00:00,
2013-02-16 08:10:00,27.4,24.3,30.03,ESE,109,0.0,0.0,88,0.00,,,0.00,Wunderground v.1.13,2013-02-16 13:10:00,
2013-02-16 08:20:00,27.6,24.5,30.03,ESE,109,0.0,0.0,88,0.00,,,0.00,Wunderground v.1.13,2013-02-16 13:20:00,
2013-02-16 08:30:00,27.8,24.4,30.03,ESE,109,0.0,0.0,87,0.00,,,0.00,Wunderground v.1.13,2013-02-16 13:30:00,
2013-02-16 08:40:00,27.9,24.3,30.03,ESE,109,0.0,0.0,86,0.00,,,0.00,Wunderground v.1.13,2013-02-16 13:40:00,
2013-02-16 08:50:00,28.0,24.1,30.03,ESE,109,0.0,0.0,85,0.00,,,0.00,Wunderground v.1.13,2013-02-16 13:50:00,
2013-02-16 09:00:00,28.1,23.6,30.03,ESE,103,0.0,0.0,83,0.00,,,0.00,Wunderground v.1.13,2013-02-16 14:00:00,
2013-02-16 09:10:00,28.3,23.8,30.03,East,88,0.0,0.0,83,0.00,,,0.00,Wunderground v.1.13,2013-02-16 14:10:00,
2013-02-16 09:20:00,28.5,23.7,30.03,ESE,108,0.0,1.0,82,0.00,,,0.00,Wunderground v.1.13,2013-02-16 14:20:00,
2013-02-16 09:30:00,28.9,23.5,30.02,ESE,117,0.0,0.0,80,0.00,,,0.00,Wunderground v.1.13,2013-02-16 14:30:00,
2013-02-16 09:40:00,29.5,24.1,30.02,ESE,117,0.0,0.0,80,0.00,,,0.00,Wunderground v.1.13,2013-02-16 14:40:00,
2013-02-16 09:50:00,29.8,24.1,30.02,SE,131,0.0,0.0,79,0.00,,,0.00,Wunderground v.1.13,2013-02-16 14:50:00,
2013-02-16 10:00:00,29.6,23.3,30.02,ESE,105,0.0,1.0,77,0.00,,,0.00,Wunderground v.1.13,2013-02-16 15:00:00,
2013-02-16 10:10:00,29.2,22.6,30.02,ESE,104,1.0,1.0,76,0.00,,,0.00,Wunderground v.1.13,2013-02-16 15:10:00,
2013-02-16 10:20:00,29.4,23.1,30.02,South,177,0.0,0.0,77,0.00,,,0.00,Wunderground v.1.13,2013-02-16 15:20:00,
2013-02-16 10:30:00,29.4,22.8,30.02,ESE,113,0.0,0.0,76,0.00,,,0.00,Wunderground v.1.13,2013-02-16 15:30:00,
2013-02-16 10:40:00,29.4,22.8,30.01,ESE,103,1.0,1.0,76,0.00,,,0.00,Wunderground v.1.13,2013-02-16 15:40:00,
2013-02-16 10:50:00,29.2,23.2,30.01,East,85,1.0,1.0,78,0.00,,,0.00,Wunderground v.1.13,2013-02-16 15:50:00,
2013-02-16 11:00:00,29.6,23.3,30.00,ESE,112,1.0,3.0,77,0.00,,,0.00,Wunderground v.1.13,2013-02-16 16:00:00,
2013-02-16 11:10:00,29.7,23.4,30.00,ESE,109,1.0,1.0,77,0.00,,,0.00,Wunderground v.1.13,2013-02-16 16:10:00,
2013-02-16 11:20:00,29.9,22.6,30.00,East,82,1.0,1.0,74,0.00,,,0.00,Wunderground v.1.13,2013-02-16 16:20:00,
2013-02-16 11:30:00,29.8,22.5,30.00,ESE,109,2.0,2.0,74,0.00,,,0.00,Wunderground v.1.13,2013-02-16 16:30:00,
2013-02-16 11:40:00,30.3,22.0,30.00,East,88,1.0,1.0,71,0.00,,,0.00,Wunderground v.1.13,2013-02-16 16:40:00,
2013-02-16 11:50:00,30.3,22.4,30.00,East,84,0.0,0.0,72,0.00,,,0.00,Wunderground v.1.13,2013-02-16 16:50:00,
2013-02-16 12:00:00,30.1,21.5,30.00,ESE,119,1.0,1.0,70,0.00,,,0.00,Wunderground v.1.13,2013-02-16 17:00:00,
2013-02-16 12:10:00,30.1,22.8,29.99,East,81,0.0,0.0,74,0.00,,,0.00,Wunderground v.1.13,2013-02-16 17:10:00,
2013-02-16 12:20:00,30.2,22.3,29.99,East,91,0.0,0.0,72,0.00,,,0.00,Wunderground v.1.13,2013-02-16 17:20:00,
2013-02-16 12:30:00,29.9,22.6,29.98,East,92,1.0,1.0,74,0.00,,,0.00,Wunderground v.1.13,2013-02-16 17:30:00,
2013-02-16 12:40:00,29.8,22.5,29.98,East,99,1.0,1.0,74,0.00,,,0.00,Wunderground v.1.13,2013-02-16 17:40:00,
2013-02-16 12:50:00,29.9,22.3,29.97,SE,124,1.0,1.0,73,0.00,,,0.00,Wunderground v.1.13,2013-02-16 17:50:00,
2013-02-16 13:00:00,30.1,22.2,29.97,ENE,72,1.0,1.0,72,0.00,,,0.00,Wunderground v.1.13,2013-02-16 18:00:00,
2013-02-16 13:10:00,30.4,22.4,29.96,SE,130,1.0,2.0,72,0.00,,,0.00,Wunderground v.1.13,2013-02-16 18:10:00,
2013-02-16 13:20:00,30.5,23.5,29.96,ESE,108,1.0,1.0,75,0.00,,,0.00,Wunderground v.1.13,2013-02-16 18:20:00,
2013-02-16 13:30:00,30.3,22.7,29.96,ESE,106,1.0,1.0,73,0.00,,,0.00,Wunderground v.1.13,2013-02-16 18:30:00,
2013-02-16 13:40:00,30.2,23.2,29.96,East,91,1.0,1.0,75,0.00,,,0.00,Wunderground v.1.13,2013-02-16 18:40:00,
2013-02-16 13:50:00,30.0,23.4,29.96,ESE,112,1.0,1.0,76,0.00,,,0.00,Wunderground v.1.13,2013-02-16 18:50:00,
2013-02-16 14:00:00,30.0,23.4,29.96,ESE,103,1.0,1.0,76,0.00,,,0.00,Wunderground v.1.13,2013-02-16 19:00:00,
2013-02-16 14:10:00,30.1,23.4,29.96,SE,140,0.0,0.0,76,0.00,,,0.00,Wunderground v.1.13,2013-02-16 19:10:00,
2013-02-16 14:20:00,30.2,23.5,29.96,SE,136,1.0,2.0,76,0.00,,,0.00,Wunderground v.1.13,2013-02-16 19:20:00,
2013-02-16 14:30:00,30.4,23.1,29.95,East,90,2.0,2.0,74,0.00,,,0.00,Wunderground v.1.13,2013-02-16 19:30:00,
2013-02-16 14:40:00,30.6,23.6,29.95,East,96,1.0,1.0,75,0.00,,,0.00,Wunderground v.1.13,2013-02-16 19:40:00,
2013-02-16 14:50:00,30.6,23.6,29.95,ENE,71,3.0,3.0,75,0.00,,,0.00,Wunderground v.1.13,2013-02-16 19:50:00,
2013-02-16 15:00:00,30.8,23.2,29.95,SE,131,1.0,1.0,73,0.00,,,0.00,Wunderground v.1.13,2013-02-16 20:00:00,
2013-02-16 15:10:00,30.9,22.9,29.95,ESE,121,1.0,6.0,72,0.00,,,0.00,Wunderground v.1.13,2013-02-16 20:10:00,
2013-02-16 15:20:00,29.9,24.2,29.96,ESE,112,3.0,3.0,79,0.00,,,0.00,Wunderground v.1.13,2013-02-16 20:20:00,
2013-02-16 15:30:00,31.0,24.3,29.95,ESE,115,1.0,1.0,76,0.00,,,0.00,Wunderground v.1.13,2013-02-16 20:30:00,
2013-02-16 15:40:00,31.9,23.6,29.95,ESE,107,1.0,2.0,71,0.00,,,0.00,Wunderground v.1.13,2013-02-16 20:40:00,
2013-02-16 15:50:00,31.7,23.7,29.95,ENE,62,1.0,1.0,72,0.00,,,0.00,Wunderground v.1.13,2013-02-16 20:50:00,
2013-02-16 16:00:00,31.7,21.6,29.95,East,87,1.0,1.0,66,0.00,,,0.00,Wunderground v.1.13,2013-02-16 21:00:00,
2013-02-16 16:10:00,31.2,23.5,29.96,ESE,117,2.0,3.0,73,0.00,,,0.00,Wunderground v.1.13,2013-02-16 21:10:00,
2013-02-16 16:20:00,30.4,23.4,29.96,East,79,2.0,2.0,75,0.00,,,0.00,Wunderground v.1.13,2013-02-16 21:20:00,
2013-02-16 16:30:00,30.6,23.0,29.96,ESE,105,1.0,1.0,73,0.00,,,0.00,Wunderground v.1.13,2013-02-16 21:30:00,
2013-02-16 16:40:00,31.1,23.8,29.96,ENE,71,1.0,1.0,74,0.00,,,0.00,Wunderground v.1.13,2013-02-16 21:40:00,
2013-02-16 16:50:00,31.0,22.7,29.96,ENE,71,0.0,0.0,71,0.00,,,0.00,Wunderground v.1.13,2013-02-16 21:50:00,
2013-02-16 17:00:00,30.4,24.7,29.96,ENE,65,1.0,2.0,79,0.00,,,0.00,Wunderground v.1.13,2013-02-16 22:00:00,
2013-02-16 17:10:00,29.2,24.4,29.96,SE,133,3.0,3.0,82,0.00,,,0.00,Wunderground v.1.13,2013-02-16 22:10:00,
2013-02-16 17:20:00,29.3,23.9,29.96,East,85,1.0,1.0,80,0.00,,,0.00,Wunderground v.1.13,2013-02-16 22:20:00,
2013-02-16 17:30:00,29.5,23.5,29.96,East,96,1.0,1.0,78,0.00,,,0.00,Wunderground v.1.13,2013-02-16 22:30:00,
2013-02-16 17:40:00,29.5,23.2,29.97,East,100,0.0,1.0,77,0.00,,,0.00,Wunderground v.1.13,2013-02-16 22:40:00,
2013-02-16 17:50:00,29.4,23.1,29.97,East,95,0.0,0.0,77,0.00,,,0.00,Wunderground v.1.13,2013-02-16 22:50:00,
2013-02-16 18:00:00,29.1,23.4,29.97,East,95,0.0,0.0,79,0.00,,,0.00,Wunderground v.1.13,2013-02-16 23:00:00,
2013-02-16 18:10:00,28.9,22.9,29.97,NNE,31,0.0,1.0,78,0.00,,,0.00,Wunderground v.1.13,2013-02-16 23:10:00,
2013-02-16 18:20:00,28.9,22.9,29.97,ESE,105,1.0,1.0,78,0.00,,,0.00,Wunderground v.1.13,2013-02-16 23:20:00,
2013-02-16 18:30:00,28.8,22.8,29.97,East,92,0.0,0.0,78,0.00,,,0.00,Wunderground v.1.13,2013-02-16 23:30:00,
2013-02-16 18:40:00,28.5,22.5,29.97,East,92,0.0,0.0,78,0.00,,,0.00,Wunderground v.1.13,2013-02-16 23:40:00,
2013-02-16 18:50:00,28.3,22.6,29.97,East,92,0.0,0.0,79,0.00,,,0.00,Wunderground v.1.13,2013-02-16 23:50:00,
2013-02-16 19:00:00,28.2,21.9,29.98,East,92,0.0,0.0,77,0.00,,,0.00,Wunderground v.1.13,2013-02-17 00:00:00,
2013-02-16 19:10:00,28.0,22.3,29.97,East,92,0.0,0.0,79,0.00,,,0.00,Wunderground v.1.13,2013-02-17 00:10:00,
2013-02-16 19:20:00,27.9,21.6,29.97,East,92,0.0,0.0,77,0.00,,,0.00,Wunderground v.1.13,2013-02-17 00:20:00,
2013-02-16 19:30:00,27.6,21.9,29.97,East,92,0.0,0.0,79,0.00,,,0.00,Wunderground v.1.13,2013-02-17 00:30:00,
2013-02-16 19:40:00,27.4,22.0,29.97,East,92,0.0,0.0,80,0.00,,,0.00,Wunderground v.1.13,2013-02-17 00:40:00,
2013-02-16 19:50:00,27.1,22.0,29.97,East,92,0.0,0.0,81,0.00,,,0.00,Wunderground v.1.13,2013-02-17 00:50:00,
2013-02-16 20:00:00,26.9,22.4,29.97,East,92,0.0,0.0,83,0.00,,,0.00,Wunderground v.1.13,2013-02-17 01:00:00,
2013-02-16 20:10:00,26.6,22.4,29.97,East,92,0.0,0.0,84,0.00,,,0.00,Wunderground v.1.13,2013-02-17 01:10:00,
2013-02-16 20:20:00,26.5,22.3,29.97,East,92,0.0,0.0,84,0.00,,,0.00,Wunderground v.1.13,2013-02-17 01:20:00,
2013-02-16 20:30:00,26.3,22.1,29.97,East,92,0.0,0.0,84,0.00,,,0.00,Wunderground v.1.13,2013-02-17 01:30:00,
2013-02-16 20:40:00,26.1,22.2,29.96,East,92,0.0,0.0,85,0.00,,,0.00,Wunderground v.1.13,2013-02-17 01:40:00,
2013-02-16 20:50:00,26.1,22.2,29.96,East,92,0.0,0.0,85,0.00,,,0.00,Wunderground v.1.13,2013-02-17 01:50:00,
2013-02-16 21:00:00,26.2,22.0,29.96,East,87,1.0,2.0,84,0.00,,,0.00,Wunderground v.1.13,2013-02-17 02:00:00,
2013-02-16 21:10:00,26.9,22.1,29.97,ESE,117,3.0,3.0,82,0.00,,,0.00,Wunderground v.1.13,2013-02-17 02:10:00,
2013-02-16 21:20:00,27.0,22.5,29.97,ENE,73,3.0,3.0,83,0.00,,,0.00,Wunderground v.1.13,2013-02-17 02:20:00,
2013-02-16 21:30:00,25.9,22.8,29.98,ESE,107,4.0,6.0,88,0.00,,,0.00,Wunderground v.1.13,2013-02-17 02:30:00,
2013-02-16 21:40:00,25.1,22.8,29.98,ESE,105,3.0,4.0,91,0.00,,,0.00,Wunderground v.1.13,2013-02-17 02:40:00,
2013-02-16 21:50:00,24.8,22.3,29.98,ENE,76,3.0,3.0,90,0.00,,,0.00,Wunderground v.1.13,2013-02-17 02:50:00,
2013-02-16 22:00:00,24.7,22.4,29.98,ESE,103,0.0,0.0,91,0.00,,,0.00,Wunderground v.1.13,2013-02-17 03:00:00,
2013-02-16 22:10:00,24.7,22.2,29.98,ESE,113,0.0,0.0,90,0.00,,,0.00,Wunderground v.1.13,2013-02-17 03:10:00,
2013-02-16 22:20:00,24.7,22.2,29.98,ESE,103,1.0,1.0,90,0.00,,,0.00,Wunderground v.1.13,2013-02-17 03:20:00,
2013-02-16 22:30:00,25.0,22.2,29.98,East,95,1.0,1.0,89,0.00,,,0.00,Wunderground v.1.13,2013-02-17 03:30:00,
2013-02-16 22:40:00,25.0,22.2,29.98,East,98,1.0,1.0,89,0.00,,,0.00,Wunderground v.1.13,2013-02-17 03:40:00,
2013-02-16 22:50:00,25.1,21.8,29.98,NE,40,1.0,1.0,87,0.00,,,0.00,Wunderground v.1.13,2013-02-17 03:50:00,
2013-02-16 23:00:00,24.9,21.8,29.98,East,92,2.0,2.0,88,0.00,,,0.00,Wunderground v.1.13,2013-02-17 04:00:00,
2013-02-16 23:10:00,25.0,20.6,29.98,NE,51,3.0,3.0,83,0.00,,,0.00,Wunderground v.1.13,2013-02-17 04:10:00,
2013-02-16 23:20:00,25.0,19.7,29.98,ESE,111,3.0,3.0,80,0.00,,,0.00,Wunderground v.1.13,2013-02-17 04:20:00,
2013-02-16 23:30:00,24.7,18.5,29.99,ESE,103,3.0,3.0,77,0.00,,,0.00,Wunderground v.1.13,2013-02-17 04:30:00,
2013-02-16 23:40:00,24.2,16.8,29.99,ESE,119,2.0,10.0,73,0.00,,,0.00,Wunderground v.1.13,2013-02-17 04:40:00,
2013-02-16 23:50:00,23.9,15.2,29.99,ESE,123,6.0,6.0,69,0.00,,,0.00,Wunderground v.1.13,2013-02-17 04:50:00,